x

Devils Island, Wi (disw3) Weather Station

1:00am - Tue 27th Sep 2016 All times are CDT. -5 hours from GMT.

  • Wind
    29mph, 34mph gusts
  • Air Temp 53°f
  • Sea Pressure 1002.2mb
  • Devils Island, Wi
  • Devils Island, Wi

More Historic Weather Station data

Upgrade to MSW Pro to gain access to the past 30 days of data for over 8000 Wavebouys and Weather Stations around the globe.

Join Pro

Comparision Forecast

View Surf forecast
   
Tue 09/27 1:00am 29 34 mph 1002.2mb 53f
12:00am 24 31 mph 1002.8mb 52f
Mon 09/26 11:00pm 28 31 mph 1003mb 52f
10:00pm 34 40 mph 1003.1mb 53f
9:00pm 31 34 mph 1003.7mb 53f
8:00pm 33 38 mph 1003.9mb 53f
7:00pm 32 40 mph 1004mb 53f
6:00pm 37 40 mph 1004mb 54f
5:00pm 36 41 mph 1004.2mb 53f
4:00pm 34 41 mph 1004mb 53f
3:00pm 32 37 mph 1003.9mb 53f
2:00pm 36 44 mph 1003.7mb 53f
1:00pm 32 40 mph 1003.7mb 53f
12:00pm 34 41 mph 1003.6mb 53f
11:00am 32 40 mph 1003.2mb 53f
10:00am 33 39 mph 1003mb 53f
9:00am 33 40 mph 1002.7mb 54f
8:00am 32 44 mph 1002.6mb 54f
7:00am 30 39 mph 1002.5mb 54f
6:00am 29 34 mph 1002.7mb 53f
5:00am 31 39 mph 1003mb 52f
4:00am 32 38 mph 1003.4mb 53f
3:00am 28 33 mph 1004.3mb 53f
2:00am 32 37 mph 1005mb 54f
1:00am 33 39 mph 1005.7mb 53f
12:00am 29 36 mph 1006.5mb 54f
Sun 09/25 11:00pm 26 31 mph 1007.4mb 56f
10:00pm 23 29 mph 1007.7mb 57f
9:00pm 21 24 mph 1007.9mb 59f
8:00pm 11 16 mph 1008mb 60f
7:00pm 16 18 mph 1008.1mb 60f
6:00pm 21 24 mph 1007.6mb 61f
5:00pm 33 38 mph 1007.1mb 60f
4:00pm 15 20 mph 1006.9mb 63f
3:00pm 9 14 mph 1007mb 67f
2:00pm 11 17 mph 1007.6mb 65f
1:00pm 10 15 mph 1008.5mb 64f
12:00pm 14 20 mph 1009mb 64f
11:00am 14 21 mph 1010mb 64f
10:00am 7 11 mph 1010.6mb 63f
9:00am 14 16 mph 1011.6mb 63f
8:00am 7 9 mph 1012.6mb 61f
7:00am 8 10 mph 1013.6mb 62f
6:00am 7 10 mph 1014.3mb 61f
5:00am 7 8 mph 1015.1mb 62f
4:00am 6 9 mph 1015.4mb 62f
3:00am 7 9 mph 1015.9mb 62f
2:00am 8 10 mph 1016.6mb 63f
1:00am 6 8 mph 1016.9mb 63f
12:00am 10 11 mph 1017.5mb 64f
Sat 09/24 11:00pm 10 13 mph 1017.4mb 65f
10:00pm 9 13 mph 1018.3mb 64f
9:00pm 7 9 mph 1019.5mb 62f
8:00pm 13 14 mph 1019.4mb 63f
7:00pm 10 11 mph 1019.8mb 63f
6:00pm 15 16 mph 1018.9mb 62f
5:00pm 14 15 mph 1019mb 62f
4:00pm 17 18 mph 1019.2mb 62f
3:00pm 15 17 mph 1020.5mb 61f
2:00pm 15 17 mph 1021.1mb 61f
1:00pm 13 15 mph 1021.6mb 61f
12:00pm 10 11 mph 1022.3mb 62f
11:00am 10 11 mph 1022.5mb 61f
10:00am 9 11 mph 1022.7mb 61f
9:00am 9 11 mph 1022.9mb 61f
8:00am 11 14 mph 1023.2mb 60f
7:00am 11 15 mph 1023.2mb 60f
6:00am 11 15 mph 1023mb 60f
5:00am 10 13 mph 1023.3mb 61f
4:00am 10 15 mph 1023.5mb 60f
3:00am 17 20 mph 1023mb 60f
2:00am 13 15 mph 1023.2mb 60f
1:00am 18 21 mph 1022.8mb 60f
12:00am 25 28 mph 1022.3mb 60f
Fri 09/23 11:00pm 23 26 mph 1022.6mb 60f
10:00pm 22 25 mph 1023.2mb 61f
9:00pm 25 28 mph 1023.3mb 61f
8:00pm 24 30 mph 1023.2mb 60f
7:00pm 25 30 mph 1023.1mb 60f
6:00pm 24 28 mph 1023mb 60f
5:00pm 24 26 mph 1023.2mb 60f
4:00pm 21 23 mph 1023.2mb 61f
3:00pm 18 20 mph 1023.7mb 61f
2:00pm 16 17 mph 1024.5mb 61f
1:00pm 21 23 mph 1024.6mb 61f
12:00pm 22 23 mph 1024.8mb 61f
11:00am 18 21 mph 1025.3mb 60f
10:00am 21 23 mph 1025.5mb 59f
9:00am 21 22 mph 1025.2mb 59f
8:00am 21 22 mph 1024.7mb 58f